createdAt,value
2023-05-15T00:00:03.141Z,99.5
2023-05-15T00:01:12.291Z,99.5
2023-05-15T00:02:21.446Z,99.5
2023-05-15T00:03:30.702Z,99.5
2023-05-15T00:04:39.800Z,99.5
2023-05-15T00:05:48.956Z,99.5
2023-05-15T00:06:58.243Z,99.5
2023-05-15T00:08:07.344Z,99.5
2023-05-15T00:09:16.513Z,99.5
2023-05-15T00:10:25.674Z,99.5
2023-05-15T00:11:34.830Z,99.5
2023-05-15T00:12:44.018Z,99.5
2023-05-15T00:13:53.177Z,99.5
2023-05-15T00:15:01.389Z,99.5
2023-05-15T00:16:10.560Z,99.5
2023-05-15T00:17:19.781Z,99.5
2023-05-15T00:18:28.878Z,99.5
2023-05-15T00:19:38.064Z,99.5
2023-05-15T00:20:47.230Z,99.5
2023-05-15T00:21:55.428Z,99.5
2023-05-15T00:23:03.615Z,99.5
2023-05-15T00:24:12.775Z,99.5
2023-05-15T00:25:21.959Z,99.5
2023-05-15T00:26:31.225Z,99.5
2023-05-15T00:27:40.302Z,99.5
2023-05-15T00:28:49.490Z,99.5
2023-05-15T00:29:58.715Z,99.5
2023-05-15T00:31:07.824Z,99.5
2023-05-15T00:32:17.028Z,99.5
2023-05-15T00:33:26.171Z,99.5
2023-05-15T00:35:44.515Z,99.5
2023-05-15T00:36:53.768Z,99.5
2023-05-15T00:38:01.955Z,99.5
2023-05-15T00:39:11.105Z,99.5
2023-05-15T00:40:20.217Z,99.5
2023-05-15T00:41:29.410Z,99.5
2023-05-15T00:42:38.621Z,99.5
2023-05-15T00:43:47.760Z,99.5
2023-05-15T00:44:56.915Z,99.5
2023-05-15T00:46:06.092Z,99.5
2023-05-15T00:47:15.291Z,99.5
2023-05-15T00:48:24.443Z,99.5
2023-05-15T00:49:33.695Z,99.5
2023-05-15T00:50:42.780Z,99.5
2023-05-15T00:51:51.962Z,99.5
2023-05-15T00:53:00.180Z,99.5
2023-05-15T00:54:09.313Z,99.5
2023-05-15T00:55:18.618Z,99.5
2023-05-15T00:56:27.758Z,99.5
2023-05-15T00:57:36.824Z,99.5
2023-05-15T00:59:55.179Z,99.5
2023-05-15T01:01:04.352Z,99.5
2023-05-15T01:03:22.719Z,99.5
2023-05-15T01:04:30.902Z,99.5
2023-05-15T01:05:39.165Z,99.5
2023-05-15T01:06:47.320Z,99.5
2023-05-15T01:07:56.546Z,99.5
2023-05-15T01:09:05.620Z,99.5
2023-05-15T01:10:14.815Z,99.5
2023-05-15T01:11:23.978Z,99.5
2023-05-15T01:12:33.216Z,99.5
2023-05-15T01:13:42.304Z,99.5
2023-05-15T01:14:51.548Z,99.5
2023-05-15T01:16:00.801Z,99.5
2023-05-15T01:17:09.821Z,99.5
2023-05-15T01:18:19.030Z,99.5
2023-05-15T01:19:28.164Z,99.5
2023-05-15T01:20:37.351Z,99.5
2023-05-15T01:21:45.538Z,99.5
2023-05-15T01:22:54.704Z,99.5
2023-05-15T01:24:03.891Z,99.5
2023-05-15T01:25:13.231Z,99.5
2023-05-15T01:26:22.349Z,99.5
2023-05-15T01:27:31.405Z,99.5
2023-05-15T01:28:39.664Z,99.5
2023-05-15T01:29:47.794Z,99.5
2023-05-15T01:30:57.001Z,99.5
2023-05-15T01:32:06.143Z,99.5
2023-05-15T01:33:15.291Z,99.5
2023-05-15T01:34:24.484Z,99.5
2023-05-15T01:35:33.699Z,99.5
2023-05-15T01:36:42.857Z,99.5
2023-05-15T01:37:51.991Z,99.5
2023-05-15T01:39:01.294Z,99.5
2023-05-15T01:40:10.415Z,99.5
2023-05-15T01:41:19.545Z,99.5
2023-05-15T01:42:28.694Z,99.5
2023-05-15T01:43:37.859Z,99.5
2023-05-15T01:44:46.073Z,99.5
2023-05-15T01:45:55.296Z,99.5
2023-05-15T01:47:04.425Z,99.5
2023-05-15T01:48:13.563Z,99.5
2023-05-15T01:49:22.726Z,99.5
2023-05-15T01:50:31.900Z,99.5
2023-05-15T01:51:41.076Z,99.5
2023-05-15T01:52:50.306Z,99.5
2023-05-15T01:53:59.481Z,99.5
2023-05-15T01:55:08.678Z,99.5
2023-05-15T01:56:17.858Z,99.5
2023-05-15T01:57:27.039Z,99.5
2023-05-15T01:58:36.114Z,99.5
2023-05-15T01:59:44.300Z,99.5
2023-05-15T02:00:53.467Z,99.5
2023-05-15T02:02:02.641Z,99.5
2023-05-15T02:03:11.828Z,99.5
2023-05-15T02:04:20.016Z,99.5
2023-05-15T02:05:28.210Z,99.5
2023-05-15T02:06:36.498Z,99.5
2023-05-15T02:07:45.575Z,99.5
2023-05-15T02:08:54.767Z,99.5
2023-05-15T02:10:04.036Z,99.5
2023-05-15T02:11:13.108Z,99.5
2023-05-15T02:12:22.270Z,99.5
2023-05-15T02:13:31.455Z,99.5
2023-05-15T02:14:40.637Z,99.5
2023-05-15T02:15:49.773Z,99.5
2023-05-15T02:16:59.004Z,99.5
2023-05-15T02:18:08.122Z,99.5
2023-05-15T02:19:17.292Z,99.5
2023-05-15T02:20:26.521Z,99.5
2023-05-15T02:21:34.679Z,99.5
2023-05-15T02:22:43.876Z,99.5
2023-05-15T02:23:52.996Z,99.5
2023-05-15T02:25:02.172Z,99.5
2023-05-15T02:26:11.355Z,99.5
2023-05-15T02:27:20.592Z,99.5
2023-05-15T02:28:29.773Z,99.5
2023-05-15T02:29:38.883Z,99.5
2023-05-15T02:30:48.042Z,99.5
2023-05-15T02:31:57.265Z,99.5
2023-05-15T02:34:14.575Z,99.5
2023-05-15T02:35:22.773Z,99.5
2023-05-15T02:36:30.968Z,99.5
2023-05-15T02:37:40.191Z,99.5
2023-05-15T02:38:49.319Z,99.5
2023-05-15T02:39:58.499Z,99.5
2023-05-15T02:41:07.646Z,99.5
2023-05-15T02:42:16.841Z,99.5
2023-05-15T02:43:26.102Z,99.5
2023-05-15T02:44:35.223Z,99.5
2023-05-15T02:45:44.345Z,99.5
2023-05-15T02:46:53.534Z,99.5
2023-05-15T02:48:02.704Z,99.5
2023-05-15T02:49:11.969Z,99.5
2023-05-15T02:50:21.034Z,99.5
2023-05-15T02:51:29.235Z,99.5
2023-05-15T02:52:38.401Z,99.5
2023-05-15T02:53:47.578Z,99.5
2023-05-15T02:54:56.770Z,99.5
2023-05-15T02:56:04.953Z,99.5
2023-05-15T02:57:14.147Z,99.5
2023-05-15T02:58:23.302Z,99.5
2023-05-15T03:00:41.645Z,99.5
2023-05-15T03:01:50.796Z,99.5
2023-05-15T03:02:59.975Z,99.5
2023-05-15T03:04:09.140Z,99.5
2023-05-15T03:05:18.303Z,99.5
2023-05-15T03:06:27.617Z,99.5
2023-05-15T03:07:36.663Z,99.5
2023-05-15T03:08:45.840Z,99.5
2023-05-15T03:09:55.005Z,99.5
2023-05-15T03:11:04.289Z,99.5
2023-05-15T03:12:12.398Z,99.5
2023-05-15T03:13:21.544Z,99.5
2023-05-15T03:14:30.751Z,99.5
2023-05-15T03:15:39.980Z,99.5
2023-05-15T03:16:49.058Z,99.5
2023-05-15T03:17:58.253Z,99.5
2023-05-15T03:19:07.398Z,99.5
2023-05-15T03:20:16.580Z,99.5
2023-05-15T03:21:25.746Z,99.5
2023-05-15T03:22:34.947Z,99.5
2023-05-15T03:23:44.119Z,99.5
2023-05-15T03:24:53.272Z,99.5
2023-05-15T03:26:02.525Z,99.5
2023-05-15T03:27:10.635Z,99.5
2023-05-15T03:28:19.816Z,99.5
2023-05-15T03:29:28.987Z,99.5
2023-05-15T03:30:38.179Z,99.5
2023-05-15T03:31:47.367Z,99.5
2023-05-15T03:32:56.502Z,99.5
2023-05-15T03:34:05.668Z,99.5
2023-05-15T03:35:14.840Z,99.5
2023-05-15T03:36:24.032Z,99.5
2023-05-15T03:37:33.191Z,99.5
2023-05-15T03:38:42.401Z,99.5
2023-05-15T03:39:51.526Z,99.5
2023-05-15T03:41:00.767Z,99.5
2023-05-15T03:42:08.966Z,99.5
2023-05-15T03:43:18.101Z,99.5
2023-05-15T03:44:27.263Z,99.5
2023-05-15T03:45:36.495Z,99.5
2023-05-15T03:46:45.614Z,99.5
2023-05-15T03:47:54.783Z,99.5
2023-05-15T03:50:13.187Z,99.5
2023-05-15T03:52:31.513Z,99.5
2023-05-15T03:53:40.630Z,99.5
2023-05-15T03:54:49.848Z,99.5
2023-05-15T03:55:59.136Z,99.5
2023-05-15T03:57:08.310Z,99.5
2023-05-15T03:58:16.412Z,99.5
2023-05-15T03:59:25.650Z,99.5
2023-05-15T04:00:34.874Z,99.5
2023-05-15T04:01:43.981Z,99.5
2023-05-15T04:02:53.197Z,99.5
2023-05-15T04:04:02.278Z,99.5
2023-05-15T04:05:11.485Z,99.5
2023-05-15T04:06:20.660Z,99.5
2023-05-15T04:07:29.812Z,99.5
2023-05-15T04:08:38.985Z,99.5
2023-05-15T04:10:57.379Z,99.5
2023-05-15T04:12:05.561Z,99.5
2023-05-15T04:13:14.781Z,99.5
2023-05-15T04:14:22.980Z,99.5
2023-05-15T04:15:32.193Z,99.5
2023-05-15T04:16:41.285Z,99.5
2023-05-15T04:17:50.363Z,99.5
2023-05-15T04:18:59.540Z,99.5
2023-05-15T04:20:08.859Z,99.5
2023-05-15T04:21:17.952Z,99.5
2023-05-15T04:22:27.141Z,99.5
2023-05-15T04:23:35.306Z,99.5
2023-05-15T04:24:43.438Z,99.5
2023-05-15T04:25:52.701Z,99.5
2023-05-15T04:28:11.037Z,99.5
2023-05-15T04:29:20.060Z,99.5
2023-05-15T04:30:29.336Z,99.5
2023-05-15T04:31:38.574Z,99.5
2023-05-15T04:32:47.738Z,99.5
2023-05-15T04:33:56.913Z,99.5
2023-05-15T04:35:05.926Z,99.5
2023-05-15T04:36:15.200Z,99.5
2023-05-15T04:37:24.269Z,99.5
2023-05-15T04:38:33.582Z,99.5
2023-05-15T04:39:41.825Z,99.5
2023-05-15T04:40:50.838Z,99.5
2023-05-15T04:42:00.049Z,99.5
2023-05-15T04:43:09.154Z,99.5
2023-05-15T04:44:18.345Z,99.5
2023-05-15T04:45:27.638Z,99.5
2023-05-15T04:46:36.823Z,99.5
2023-05-15T04:47:46.008Z,99.5
2023-05-15T04:48:55.166Z,99.5
2023-05-15T04:50:04.363Z,99.5
2023-05-15T04:51:13.521Z,99.5
2023-05-15T04:52:22.595Z,99.5
2023-05-15T04:53:31.789Z,99.5
2023-05-15T04:54:39.897Z,99.5
2023-05-15T04:55:49.182Z,99.5
2023-05-15T04:56:58.442Z,99.5
2023-05-15T04:58:07.512Z,99.5
2023-05-15T04:59:16.703Z,99.5
2023-05-15T05:00:25.887Z,99.5
2023-05-15T05:01:35.045Z,99.5
2023-05-15T05:02:44.246Z,99.5
2023-05-15T05:03:53.378Z,99.5
2023-05-15T05:05:02.536Z,99.5
2023-05-15T05:06:11.816Z,99.5
2023-05-15T05:07:20.822Z,99.5
2023-05-15T05:08:30.080Z,99.5
2023-05-15T05:09:38.173Z,99.5
2023-05-15T05:10:47.343Z,99.5
2023-05-15T05:11:56.493Z,99.5
2023-05-15T05:13:05.724Z,99.5
2023-05-15T05:14:14.868Z,99.5
2023-05-15T05:15:24.167Z,99.5
2023-05-15T05:16:33.262Z,99.5
2023-05-15T05:17:42.367Z,99.5
2023-05-15T05:18:51.532Z,99.5
2023-05-15T05:20:00.829Z,99.5
2023-05-15T05:21:09.894Z,99.5
2023-05-15T05:23:28.254Z,99.5
2023-05-15T05:24:36.455Z,99.5
2023-05-15T05:25:45.777Z,99.5
2023-05-15T05:26:54.854Z,99.5
2023-05-15T05:29:13.275Z,99.5
2023-05-15T05:30:22.512Z,99.5
2023-05-15T05:31:31.554Z,99.5
2023-05-15T05:32:40.650Z,99.5
2023-05-15T05:33:49.826Z,99.5
2023-05-15T05:34:59.076Z,99.5
2023-05-15T05:36:08.199Z,99.5
2023-05-15T05:37:17.315Z,99.5
2023-05-15T05:38:26.627Z,99.5
2023-05-15T05:39:34.840Z,99.5
2023-05-15T05:40:43.954Z,99.5
2023-05-15T05:41:53.109Z,99.5
2023-05-15T05:43:02.346Z,99.5
2023-05-15T05:44:11.369Z,99.5
2023-05-15T05:45:20.576Z,99.5
2023-05-15T05:46:29.753Z,99.5
2023-05-15T05:47:39.029Z,99.5
2023-05-15T05:48:48.098Z,99.5
2023-05-15T05:49:57.345Z,99.5
2023-05-15T05:51:06.468Z,99.5
2023-05-15T05:52:15.573Z,99.5
2023-05-15T05:53:24.932Z,99.5
2023-05-15T05:54:33.067Z,99.5
2023-05-15T05:55:42.250Z,99.5
2023-05-15T05:56:51.320Z,99.5
2023-05-15T05:58:00.572Z,99.5
2023-05-15T05:59:09.659Z,99.5
2023-05-15T06:00:18.889Z,99.5
2023-05-15T06:01:27.961Z,99.5
2023-05-15T06:02:37.204Z,99.5
2023-05-15T06:03:46.338Z,99.5
2023-05-15T06:04:55.617Z,99.5
2023-05-15T06:06:04.764Z,99.5
2023-05-15T06:07:13.840Z,99.5
2023-05-15T06:08:23.011Z,99.5
2023-05-15T06:09:31.275Z,99.5
2023-05-15T06:11:49.597Z,99.5
2023-05-15T06:12:58.745Z,99.5
2023-05-15T06:14:07.877Z,99.5
2023-05-15T06:15:17.199Z,99.5
2023-05-15T06:16:26.226Z,99.5
2023-05-15T06:17:35.400Z,99.5
2023-05-15T06:18:44.769Z,99.5
2023-05-15T06:19:53.851Z,99.5
2023-05-15T06:21:02.919Z,99.5
2023-05-15T06:22:12.102Z,99.5
2023-05-15T06:23:21.300Z,99.5
2023-05-15T06:24:29.558Z,99.5
2023-05-15T06:25:38.695Z,99.5
2023-05-15T06:26:47.805Z,99.5
2023-05-15T06:27:57.027Z,99.5
2023-05-15T06:29:06.211Z,99.5
2023-05-15T06:30:15.379Z,99.5
2023-05-15T06:31:24.575Z,99.5
2023-05-15T06:32:33.687Z,99.5
2023-05-15T06:33:43.007Z,99.5
2023-05-15T06:34:52.011Z,99.5
2023-05-15T06:36:01.362Z,99.5
2023-05-15T06:37:10.524Z,99.5
2023-05-15T06:38:19.696Z,99.5
2023-05-15T06:39:27.954Z,99.5
2023-05-15T06:40:37.111Z,99.5
2023-05-15T06:41:46.296Z,99.5
2023-05-15T06:42:55.442Z,99.5
2023-05-15T06:44:04.409Z,99.5
2023-05-15T06:45:13.763Z,99.5
2023-05-15T06:46:22.944Z,99.5
2023-05-15T06:47:31.143Z,99.5
2023-05-15T06:48:40.360Z,99.5
2023-05-15T06:49:49.473Z,99.5
2023-05-15T06:50:58.667Z,99.5
2023-05-15T06:52:07.817Z,99.5
2023-05-15T06:53:16.974Z,99.5
2023-05-15T06:54:26.160Z,99.5
2023-05-15T06:55:35.318Z,99.5
2023-05-15T06:56:44.515Z,99.5
2023-05-15T06:57:53.695Z,99.5
2023-05-15T06:59:02.883Z,99.5
2023-05-15T07:00:12.075Z,99.5
2023-05-15T07:01:21.185Z,99.5
2023-05-15T07:02:29.409Z,99.5
2023-05-15T07:03:38.390Z,99.5
2023-05-15T07:04:46.768Z,99.5
2023-05-15T07:05:54.939Z,99.5
2023-05-15T07:07:02.963Z,99.5
2023-05-15T07:08:12.155Z,99.5
2023-05-15T07:09:21.478Z,99.5
2023-05-15T07:10:30.703Z,99.5
2023-05-15T07:11:39.753Z,99.5
2023-05-15T07:13:58.008Z,99.5
2023-05-15T07:15:07.257Z,99.5
2023-05-15T07:16:16.436Z,99.5
2023-05-15T07:17:25.621Z,99.5
2023-05-15T07:18:34.808Z,99.5
2023-05-15T07:19:43.910Z,99.5
2023-05-15T07:20:53.174Z,99.5
2023-05-15T07:22:01.343Z,99.5
2023-05-15T07:23:10.551Z,99.5
2023-05-15T07:24:19.657Z,99.5
2023-05-15T07:25:28.743Z,99.5
2023-05-15T07:26:37.911Z,99.5
2023-05-15T07:27:47.195Z,99.5
2023-05-15T07:28:56.379Z,99.5
2023-05-15T07:30:05.512Z,99.5
2023-05-15T07:31:14.700Z,99.5
2023-05-15T07:32:23.917Z,99.5
2023-05-15T07:33:33.021Z,99.5
2023-05-15T07:34:42.198Z,98.5
2023-05-15T07:35:51.375Z,98.5
2023-05-15T07:36:59.570Z,98.5
2023-05-15T07:38:08.742Z,97.5
2023-05-15T07:39:18.006Z,99
2023-05-15T07:40:27.078Z,99.5
2023-05-15T07:41:36.276Z,99.5
2023-05-15T07:42:45.497Z,99
2023-05-15T07:43:54.583Z,99.5
2023-05-15T07:45:03.781Z,99.5
2023-05-15T07:46:12.981Z,99.5
2023-05-15T07:47:22.082Z,99.5
2023-05-15T07:48:31.201Z,99
2023-05-15T07:49:40.498Z,99
2023-05-15T07:50:49.674Z,99.5
2023-05-15T07:51:57.906Z,99.5
2023-05-15T07:53:07.050Z,99.5
2023-05-15T07:54:16.190Z,99.5
2023-05-15T07:55:25.248Z,99.5
2023-05-15T07:56:34.559Z,99.5
2023-05-15T07:57:43.709Z,99.5
2023-05-15T07:58:52.943Z,99.5
2023-05-15T08:00:02.123Z,99.5
2023-05-15T08:01:11.347Z,98.5
2023-05-15T08:02:20.376Z,99.5
2023-05-15T08:03:28.638Z,99.5
2023-05-15T08:04:36.764Z,99
2023-05-15T08:05:45.928Z,99
2023-05-15T08:06:55.075Z,98.5
2023-05-15T08:08:04.293Z,98.5
2023-05-15T08:09:13.490Z,98
2023-05-15T08:10:22.584Z,97.5
2023-05-15T08:11:31.754Z,97.5
2023-05-15T08:12:41.012Z,98
2023-05-15T08:13:50.095Z,98
2023-05-15T08:14:59.287Z,99.5
2023-05-15T08:16:08.508Z,99.5
2023-05-15T08:17:17.589Z,99
2023-05-15T08:18:26.742Z,99
2023-05-15T08:19:35.072Z,97.5
2023-05-15T08:20:44.164Z,97
2023-05-15T08:21:53.362Z,96.5
2023-05-15T08:23:02.457Z,96.5
2023-05-15T08:24:11.623Z,95.5
2023-05-15T08:25:20.826Z,95.5
2023-05-15T08:26:30.021Z,93.5
2023-05-15T08:27:39.141Z,94
2023-05-15T08:28:48.289Z,92.5
2023-05-15T08:29:57.531Z,93.5
2023-05-15T08:31:06.675Z,93.5
2023-05-15T08:32:15.861Z,91
2023-05-15T08:33:24.984Z,92.5
2023-05-15T08:34:33.225Z,94
2023-05-15T08:36:51.522Z,93.5
2023-05-15T08:38:00.868Z,93.5
2023-05-15T08:39:09.995Z,94.5
2023-05-15T08:40:19.075Z,94
2023-05-15T08:41:28.237Z,93
2023-05-15T08:42:37.401Z,93.5
2023-05-15T08:43:46.545Z,95
2023-05-15T08:44:55.892Z,93
2023-05-15T08:46:03.980Z,93.5
2023-05-15T08:47:12.138Z,92
2023-05-15T08:48:20.356Z,92.5
2023-05-15T08:49:29.591Z,93
2023-05-15T08:50:38.680Z,92.5
2023-05-15T08:51:47.934Z,92.5
2023-05-15T08:52:57.094Z,93
2023-05-15T08:54:06.170Z,92.5
2023-05-15T08:55:15.400Z,94
2023-05-15T08:56:24.661Z,93.5
2023-05-15T08:57:33.692Z,93
2023-05-15T08:58:42.919Z,93.5
2023-05-15T09:01:01.385Z,94.5
2023-05-15T09:02:10.514Z,93
2023-05-15T09:03:18.754Z,96
2023-05-15T09:04:27.779Z,95.5
2023-05-15T09:05:37.022Z,93
2023-05-15T09:06:46.227Z,93.5
2023-05-15T09:07:55.370Z,94.5
2023-05-15T09:09:04.531Z,93.5
2023-05-15T09:10:13.744Z,93
2023-05-15T09:11:22.958Z,93.5
2023-05-15T09:12:32.132Z,93
2023-05-15T09:13:41.154Z,91.5
2023-05-15T09:14:50.447Z,89
2023-05-15T09:15:59.638Z,90
2023-05-15T09:17:08.756Z,91
2023-05-15T09:18:17.957Z,91.5
2023-05-15T09:19:26.160Z,91
2023-05-15T09:20:35.342Z,91
2023-05-15T09:21:44.459Z,91
2023-05-15T09:22:53.565Z,92
2023-05-15T09:24:02.862Z,91.5
2023-05-15T09:25:11.905Z,91
2023-05-15T09:26:21.105Z,91
2023-05-15T09:28:39.509Z,91
2023-05-15T09:29:48.644Z,92
2023-05-15T09:30:57.886Z,91.5
2023-05-15T09:32:07.023Z,88
2023-05-15T09:33:16.199Z,87.5
2023-05-15T09:34:24.293Z,88
2023-05-15T09:35:33.580Z,90
2023-05-15T09:36:42.745Z,88.5
2023-05-15T09:37:51.927Z,87
2023-05-15T09:39:01.115Z,88
2023-05-15T09:40:09.323Z,91
2023-05-15T09:41:17.516Z,89.5
2023-05-15T09:42:26.501Z,89
2023-05-15T09:43:35.807Z,90
2023-05-15T09:44:44.982Z,91.5
2023-05-15T09:45:54.182Z,90.5
2023-05-15T09:47:03.237Z,90.5
2023-05-15T09:48:12.445Z,92
2023-05-15T09:49:21.723Z,92.5
2023-05-15T09:50:30.868Z,91
2023-05-15T09:51:40.035Z,88
2023-05-15T09:52:49.119Z,89
2023-05-15T09:53:58.224Z,85
2023-05-15T09:55:07.575Z,84.5
2023-05-15T09:56:16.571Z,85
2023-05-15T09:57:24.921Z,82
2023-05-15T09:58:33.940Z,80.5
2023-05-15T09:59:43.223Z,82.5
2023-05-15T10:00:52.416Z,83
2023-05-15T10:02:01.623Z,82
2023-05-15T10:03:09.665Z,83.5
2023-05-15T10:04:17.972Z,81.5
2023-05-15T10:05:26.994Z,83
2023-05-15T10:06:36.320Z,81.5
2023-05-15T10:07:45.353Z,81.5
2023-05-15T10:08:54.577Z,78
2023-05-15T10:10:03.724Z,79.5
2023-05-15T10:11:12.943Z,83
2023-05-15T10:12:22.025Z,83
2023-05-15T10:13:31.255Z,82
2023-05-15T10:14:40.375Z,83
2023-05-15T10:15:49.569Z,83
2023-05-15T10:16:58.731Z,83.5
2023-05-15T10:19:17.102Z,84.5
2023-05-15T10:20:25.267Z,84.5
2023-05-15T10:21:34.557Z,84
2023-05-15T10:22:43.596Z,77.5
2023-05-15T10:23:52.792Z,78
2023-05-15T10:25:01.947Z,78.5
2023-05-15T10:26:11.152Z,81.5
2023-05-15T10:27:19.366Z,82.5
2023-05-15T10:28:27.495Z,80
2023-05-15T10:29:35.764Z,80
2023-05-15T10:30:44.906Z,78
2023-05-15T10:31:54.040Z,77
2023-05-15T10:33:03.235Z,78.5
2023-05-15T10:34:12.384Z,79
2023-05-15T10:35:21.567Z,80.5
2023-05-15T10:36:30.788Z,78.5
2023-05-15T10:37:39.933Z,78
2023-05-15T10:38:48.175Z,76.5
2023-05-15T10:39:57.260Z,76
2023-05-15T10:41:06.442Z,76
2023-05-15T10:42:15.645Z,74.5
2023-05-15T10:43:24.785Z,74
2023-05-15T10:44:33.958Z,77
2023-05-15T10:45:43.151Z,77.5
2023-05-15T10:46:52.299Z,78.5
2023-05-15T10:48:01.493Z,81.5
2023-05-15T10:49:10.648Z,83
2023-05-15T10:50:19.835Z,83.5
2023-05-15T10:51:29.013Z,84
2023-05-15T10:52:38.236Z,81
2023-05-15T10:53:46.370Z,79.5
2023-05-15T10:54:55.528Z,76
2023-05-15T10:56:04.702Z,75
2023-05-15T10:57:13.867Z,79.5
2023-05-15T10:58:23.048Z,79
2023-05-15T10:59:32.286Z,78
2023-05-15T11:00:41.470Z,78
2023-05-15T11:01:50.559Z,77
2023-05-15T11:02:59.872Z,76.5
2023-05-15T11:05:18.225Z,75.5
2023-05-15T11:06:27.324Z,78
2023-05-15T11:07:36.414Z,78.5
2023-05-15T11:08:44.605Z,79
2023-05-15T11:09:53.961Z,80.5
2023-05-15T11:11:02.155Z,78.5
2023-05-15T11:12:11.241Z,76.5
2023-05-15T11:13:19.533Z,76.5
2023-05-15T11:14:28.508Z,75.5
2023-05-15T11:15:37.832Z,77.5
2023-05-15T11:16:46.850Z,74.5
2023-05-15T11:17:56.178Z,75.5
2023-05-15T11:19:05.258Z,76.5
2023-05-15T11:20:14.519Z,75.5
2023-05-15T11:21:23.693Z,74
2023-05-15T11:22:32.924Z,73.5
2023-05-15T11:23:42.120Z,78.5
2023-05-15T11:24:51.223Z,75
2023-05-15T11:26:00.338Z,73
2023-05-15T11:27:09.443Z,73.5
2023-05-15T11:28:17.750Z,72.5
2023-05-15T11:29:26.830Z,71.5
2023-05-15T11:30:36.180Z,74
2023-05-15T11:31:45.147Z,74
2023-05-15T11:32:54.359Z,75
2023-05-15T11:34:03.583Z,77.5
2023-05-15T11:35:12.686Z,71.5
2023-05-15T11:36:21.933Z,72.5
2023-05-15T11:37:31.078Z,71.5
2023-05-15T11:38:40.415Z,72
2023-05-15T11:39:49.433Z,72
2023-05-15T11:40:58.708Z,71
2023-05-15T11:42:07.771Z,70
2023-05-15T11:43:15.857Z,67.5
2023-05-15T11:44:25.208Z,71
2023-05-15T11:45:34.320Z,70.5
2023-05-15T11:46:43.398Z,69.5
2023-05-15T11:47:52.544Z,73
2023-05-15T11:49:01.700Z,70.5
2023-05-15T11:50:10.886Z,70.5
2023-05-15T11:51:20.137Z,67
2023-05-15T11:52:29.227Z,66.5
2023-05-15T11:53:38.464Z,65
2023-05-15T11:54:47.573Z,65.5
2023-05-15T11:55:56.750Z,68.5
2023-05-15T11:57:05.976Z,69.5
2023-05-15T11:58:14.167Z,66
2023-05-15T11:59:23.310Z,69.5
2023-05-15T12:00:31.506Z,68
2023-05-15T12:01:39.894Z,69.5
2023-05-15T12:02:48.832Z,69.5
2023-05-15T12:03:58.012Z,70
2023-05-15T12:05:07.184Z,68.5
2023-05-15T12:06:16.362Z,66.5
2023-05-15T12:07:25.525Z,67
2023-05-15T12:08:34.735Z,66.5
2023-05-15T12:09:43.911Z,68
2023-05-15T12:10:53.041Z,66.5
2023-05-15T12:12:02.230Z,65
2023-05-15T12:14:20.684Z,67
2023-05-15T12:15:29.740Z,65.5
2023-05-15T12:16:38.097Z,68.5
2023-05-15T12:17:47.095Z,69
2023-05-15T12:20:05.445Z,68.5
2023-05-15T12:21:13.655Z,68
2023-05-15T12:22:21.848Z,68
2023-05-15T12:23:31.012Z,67.5
2023-05-15T12:24:40.168Z,63
2023-05-15T12:25:49.385Z,64.5
2023-05-15T12:26:58.528Z,63
2023-05-15T12:28:07.683Z,65
2023-05-15T12:29:16.872Z,64
2023-05-15T12:30:26.061Z,62.5
2023-05-15T12:31:35.320Z,64
2023-05-15T12:32:43.492Z,64
2023-05-15T12:33:51.597Z,65
2023-05-15T12:35:00.769Z,65
2023-05-15T12:36:09.978Z,63.5
2023-05-15T12:37:19.124Z,63.5
2023-05-15T12:38:28.289Z,65
2023-05-15T12:39:37.585Z,65.5
2023-05-15T12:40:46.659Z,62.5
2023-05-15T12:41:55.869Z,61
2023-05-15T12:43:04.970Z,61
2023-05-15T12:44:14.143Z,59.5
2023-05-15T12:45:23.310Z,61.5
2023-05-15T12:46:32.537Z,62.5
2023-05-15T12:47:41.682Z,62
2023-05-15T12:48:49.841Z,60.5
2023-05-15T12:49:59.033Z,59
2023-05-15T12:51:08.305Z,60.5
2023-05-15T12:52:17.365Z,57.5
2023-05-15T12:53:26.661Z,60.5
2023-05-15T12:54:35.834Z,57.5
2023-05-15T12:55:43.955Z,57
2023-05-15T12:56:53.169Z,56
2023-05-15T12:58:01.279Z,55.5
2023-05-15T12:59:10.446Z,54.5
2023-05-15T13:00:19.618Z,56.5
2023-05-15T13:01:28.781Z,54.5
2023-05-15T13:02:37.952Z,52.5
2023-05-15T13:03:47.152Z,54
2023-05-15T13:04:56.289Z,51.5
2023-05-15T13:06:05.545Z,53.5
2023-05-15T13:07:14.643Z,56.5
2023-05-15T13:09:33.132Z,58
2023-05-15T13:11:51.478Z,55.5
2023-05-15T13:12:59.673Z,54.5
2023-05-15T13:14:07.823Z,55
2023-05-15T13:15:16.914Z,52
2023-05-15T13:16:26.106Z,54
2023-05-15T13:17:35.260Z,54
2023-05-15T13:18:44.426Z,53.5
2023-05-15T13:19:53.583Z,55.5
2023-05-15T13:21:02.918Z,51
2023-05-15T13:22:11.927Z,52.5
2023-05-15T13:23:21.162Z,53
2023-05-15T13:24:29.345Z,57
2023-05-15T13:25:37.536Z,55
2023-05-15T13:26:46.685Z,55.5
2023-05-15T13:27:55.893Z,54.5
2023-05-15T13:29:05.019Z,56
2023-05-15T13:30:14.179Z,55.5
2023-05-15T13:31:23.469Z,57
2023-05-15T13:32:32.599Z,58
2023-05-15T13:33:41.697Z,54.5
2023-05-15T13:34:50.870Z,51.5
2023-05-15T13:36:00.102Z,53
2023-05-15T13:37:09.217Z,53.5
2023-05-15T13:38:18.495Z,54.5
2023-05-15T13:39:27.557Z,52.5
2023-05-15T13:40:35.741Z,51
2023-05-15T13:41:44.926Z,51
2023-05-15T13:42:54.177Z,50.5
2023-05-15T13:44:03.348Z,53.5
2023-05-15T13:45:12.516Z,52.5
2023-05-15T13:46:21.756Z,53.5
2023-05-15T13:47:29.970Z,55.5
2023-05-15T13:48:38.191Z,52
2023-05-15T13:49:46.194Z,54.5
2023-05-15T13:50:55.407Z,56
2023-05-15T13:52:04.612Z,56
2023-05-15T13:53:13.712Z,56.5
2023-05-15T13:54:22.899Z,55.5
2023-05-15T13:56:41.283Z,58
2023-05-15T13:57:50.424Z,57
2023-05-15T13:58:59.570Z,50
2023-05-15T14:00:08.742Z,51.5
2023-05-15T14:01:17.926Z,50.5
2023-05-15T14:02:27.093Z,50.5
2023-05-15T14:03:36.282Z,49
2023-05-15T14:04:44.450Z,50.5
2023-05-15T14:05:53.696Z,48.5
2023-05-15T14:07:02.807Z,51.5
2023-05-15T14:08:11.969Z,50.5
2023-05-15T14:09:21.132Z,52.5
2023-05-15T14:10:30.335Z,53
2023-05-15T14:11:39.477Z,49
2023-05-15T14:12:47.701Z,52
2023-05-15T14:13:55.864Z,52.5
2023-05-15T14:15:05.085Z,50.5
2023-05-15T14:16:14.220Z,51
2023-05-15T14:17:23.388Z,46.5
2023-05-15T14:18:32.598Z,48.5
2023-05-15T14:19:41.724Z,48.5
2023-05-15T14:20:50.907Z,49
2023-05-15T14:22:00.087Z,48.5
2023-05-15T14:23:09.262Z,47.5
2023-05-15T14:24:18.433Z,51
2023-05-15T14:25:27.595Z,49.5
2023-05-15T14:26:36.802Z,49.5
2023-05-15T14:27:45.961Z,51.5
2023-05-15T14:28:54.132Z,49
2023-05-15T14:30:02.342Z,52
2023-05-15T14:31:11.498Z,49.5
2023-05-15T14:32:20.669Z,51.5
2023-05-15T14:33:29.856Z,50.5
2023-05-15T14:34:39.022Z,49.5
2023-05-15T14:35:48.188Z,50.5
2023-05-15T14:36:57.422Z,50.5
2023-05-15T14:38:06.550Z,54
2023-05-15T14:39:14.748Z,54
2023-05-15T14:40:22.923Z,51.5
2023-05-15T14:41:32.120Z,51
2023-05-15T14:42:41.271Z,52.5
2023-05-15T14:43:50.447Z,52.5
2023-05-15T14:44:59.615Z,51
2023-05-15T14:46:08.791Z,50
2023-05-15T14:48:27.177Z,50
2023-05-15T14:49:36.319Z,49.5
2023-05-15T14:50:45.497Z,49
2023-05-15T14:51:54.655Z,50
2023-05-15T14:53:03.871Z,50
2023-05-15T14:54:13.009Z,50
2023-05-15T14:55:21.208Z,49
2023-05-15T14:56:30.432Z,50.5
2023-05-15T14:57:39.556Z,50.5
2023-05-15T14:58:48.717Z,53
2023-05-15T14:59:57.888Z,49.5
2023-05-15T15:01:07.055Z,50.5
2023-05-15T15:02:16.222Z,50.5
2023-05-15T15:03:24.452Z,51
2023-05-15T15:04:32.624Z,51.5
2023-05-15T15:05:40.807Z,51
2023-05-15T15:06:49.978Z,51
2023-05-15T15:07:59.151Z,50.5
2023-05-15T15:09:08.332Z,50
2023-05-15T15:10:17.513Z,50.5
2023-05-15T15:11:26.685Z,52.5
2023-05-15T15:13:45.009Z,51
2023-05-15T15:14:54.193Z,52.5
2023-05-15T15:16:03.362Z,49
2023-05-15T15:17:12.544Z,51
2023-05-15T15:18:21.717Z,52
2023-05-15T15:19:30.884Z,48.5
2023-05-15T15:20:39.078Z,50
2023-05-15T15:22:57.410Z,50.5
2023-05-15T15:24:05.626Z,53
2023-05-15T15:25:13.807Z,53
2023-05-15T15:26:23.000Z,52.5
2023-05-15T15:27:32.143Z,52
2023-05-15T15:28:41.330Z,52
2023-05-15T15:29:50.504Z,53.5
2023-05-15T15:30:59.666Z,52
2023-05-15T15:32:08.839Z,55.5
2023-05-15T15:33:18.022Z,52.5
2023-05-15T15:34:27.186Z,53
2023-05-15T15:35:35.388Z,56.5
2023-05-15T15:36:43.702Z,54.5
2023-05-15T15:37:52.740Z,53
2023-05-15T15:39:02.030Z,54.5
2023-05-15T15:40:11.111Z,51.5
2023-05-15T15:41:20.384Z,51
2023-05-15T15:42:29.439Z,51.5
2023-05-15T15:43:38.640Z,51.5
2023-05-15T15:44:47.867Z,52
2023-05-15T15:45:57.041Z,51
2023-05-15T15:47:06.190Z,52
2023-05-15T15:48:15.371Z,53.5
2023-05-15T15:49:24.486Z,53
2023-05-15T15:50:33.725Z,52.5
2023-05-15T15:51:41.846Z,56.5
2023-05-15T15:52:51.080Z,52.5
2023-05-15T15:54:00.212Z,52.5
2023-05-15T15:55:09.369Z,52.5
2023-05-15T15:56:18.593Z,51
2023-05-15T15:57:27.796Z,50.5
2023-05-15T15:58:36.963Z,51
2023-05-15T16:00:55.231Z,50
2023-05-15T16:02:04.405Z,49.5
2023-05-15T16:03:13.574Z,48
2023-05-15T16:04:22.759Z,51